avis per tempestes more information blitzortung!


avis per Pluja more information rain snow radar


Visita la nostra xarxa de llocs de meteo:

Template documentation
and downloads

And another site



Thunderstorms From: 18-09-2018 20:00 Until: 19-09-2018 10:59 warning for: Thunderstorms Level: Yellow info button
Rain From: 18-09-2018 20:00 Until: 19-09-2018 10:59 warning for: Rain Level: Yellow info button

Pagina Historial Weather Underground text

Diari Resum Desembre 2, 2017 Unitats:  Imperial    Mètric   Tant
« Previous Dia
SegĂźent Dia »
Diari Setmana Mensual Anual Personalitzada
  Maxima: Minima: Media:
Temperatura: TemperatureC °F -0.5 °F 4.4 °F
Punt de rosada: DewpointC °F -14.8 °F -10.2 °F
Humitat: Humidity % 19 % 35 %
Wind Speed: WindSpeedKMH mph 0.0 mph 6.5 mph
RĂ fegues de vent: WindSpeedGustKMH mph - -
Vent:- - SW
Pression baro: PressurehPa in 1009.0 in -
Precipitacions: 0.0 in    
Historical Graphs
 
 
Dades de taula per Desembre 2, 2017
Temps Temperatura Punt de rosada Pression baro Vent Wind Speed RĂ fegues de vent Humitat Rainfall Rate (Hourly)
TemperatureC °F DewpointC °F PressurehPa in Calm     Humidity % HourlyPrecipMM in
00:04 2.3 °F -9.0 °F 1013.8 in WSW 7.4 mph 7.4 mph 43 % 0.0 in
00:15 2.1 °F -9.2 °F 1013.8 in WSW 8.0 mph 8.0 mph 43 % 0.0 in
00:20 2.2 °F -9.4 °F 1013.8 in WSW 3.2 mph 3.2 mph 42 % 0.0 in
00:25 2.0 °F -9.6 °F 1013.8 in SW 3.2 mph 4.8 mph 42 % 0.0 in
00:30 2.0 °F -9.6 °F 1013.8 in WSW 3.2 mph 4.8 mph 42 % 0.0 in
00:35 2.0 °F -9.9 °F 1013.8 in SW 3.2 mph 4.8 mph 41 % 0.0 in
00:40 1.8 °F -10.1 °F 1013.8 in WSW 3.2 mph 3.2 mph 41 % 0.0 in
00:45 1.7 °F -10.2 °F 1013.8 in West 1.6 mph 3.2 mph 41 % 0.0 in
00:55 1.8 °F -10.1 °F 1013.8 in WSW 3.2 mph 4.8 mph 41 % 0.0 in
01:00 1.8 °F -10.1 °F 1013.8 in WSW 1.6 mph 3.2 mph 41 % 0.0 in
01:10 1.7 °F -9.9 °F 1013.8 in WSW 3.2 mph 6.4 mph 42 % 0.0 in
01:15 1.7 °F -9.9 °F 1012.8 in WSW 1.6 mph 6.4 mph 42 % 0.0 in
01:25 1.6 °F -9.9 °F 1012.8 in West 3.2 mph 3.2 mph 42 % 0.0 in
01:30 1.5 °F -10.1 °F 1012.8 in West 1.6 mph   42 % 0.0 in
01:35 1.4 °F -10.1 °F 1012.8 in WSW 3.2 mph 3.2 mph 42 % 0.0 in
01:45 1.3 °F -10.2 °F 1012.8 in Calm   3.2 mph 42 % 0.0 in
01:50 1.2 °F -10.3 °F 1012.8 in WSW 3.2 mph 6.4 mph 42 % 0.0 in
01:55 1.3 °F -10.2 °F 1012.8 in West 3.2 mph 6.4 mph 42 % 0.0 in
02:00 1.4 °F -9.8 °F 1012.8 in West 4.8 mph 4.8 mph 43 % 0.0 in
02:05 1.3 °F -9.9 °F 1012.8 in West 3.2 mph 4.8 mph 43 % 0.0 in
02:15 1.3 °F -9.9 °F 1012.8 in WSW 4.8 mph 4.8 mph 43 % 0.0 in
02:20 1.4 °F -9.8 °F 1012.8 in West 4.8 mph 4.8 mph 43 % 0.0 in
02:25 1.4 °F -9.8 °F 1012.8 in West 3.2 mph 4.8 mph 43 % 0.0 in
02:30 1.3 °F -9.9 °F 1012.8 in WSW 4.8 mph 4.8 mph 43 % 0.0 in
02:35 1.2 °F -10.0 °F 1012.8 in WSW 4.8 mph 8.0 mph 43 % 0.0 in
02:40 1.4 °F -9.8 °F 1012.8 in WSW 4.8 mph 8.0 mph 43 % 0.0 in
02:45 1.4 °F -9.8 °F 1012.8 in West 8.0 mph 8.0 mph 43 % 0.0 in
03:00 1.4 °F -9.8 °F 1012.8 in WSW 9.7 mph 9.7 mph 43 % 0.0 in
03:05 1.4 °F -9.8 °F 1012.8 in WSW 4.8 mph 6.4 mph 43 % 0.0 in
03:10 1.4 °F -9.8 °F 1012.8 in WSW 4.8 mph 6.4 mph 43 % 0.0 in
03:15 1.3 °F -9.9 °F 1012.8 in WSW 4.8 mph 4.8 mph 43 % 0.0 in
03:20 1.3 °F -9.9 °F 1012.8 in WSW 1.6 mph 4.8 mph 43 % 0.0 in
03:25 1.3 °F -9.9 °F 1012.8 in SW 3.2 mph 6.4 mph 43 % 0.0 in
03:30 1.3 °F -9.9 °F 1011.7 in West 4.8 mph 6.4 mph 43 % 0.0 in
03:35 1.2 °F -10.0 °F 1011.7 in West 3.2 mph 4.8 mph 43 % 0.0 in
03:45 1.2 °F -10.0 °F 1011.7 in WSW 4.8 mph 6.4 mph 43 % 0.0 in
03:55 1.1 °F -9.8 °F 1011.7 in SW 4.8 mph 6.4 mph 44 % 0.0 in
04:00 1.2 °F -9.7 °F 1011.7 in WSW 9.7 mph 9.7 mph 44 % 0.0 in
04:05 1.4 °F -9.6 °F 1011.7 in WSW 12.9 mph 12.9 mph 44 % 0.0 in
04:10 1.4 °F -9.6 °F 1011.7 in WSW 9.7 mph 9.7 mph 44 % 0.0 in
04:15 1.4 °F -9.3 °F 1011.7 in WSW 11.3 mph 11.3 mph 45 % 0.0 in
04:20 1.4 °F -9.3 °F 1011.7 in WSW 8.0 mph 9.7 mph 45 % 0.0 in
04:25 1.4 °F -9.3 °F 1011.7 in West 4.8 mph 6.4 mph 45 % 0.0 in
04:30 1.2 °F -9.4 °F 1011.7 in West 4.8 mph 6.4 mph 45 % 0.0 in
04:35 1.1 °F -9.6 °F 1011.7 in WSW 4.8 mph 8.0 mph 45 % 0.0 in
04:40 1.0 °F -9.3 °F 1011.7 in West 4.8 mph 8.0 mph 46 % 0.0 in
04:45 1.1 °F -9.3 °F 1011.7 in West 8.0 mph 8.0 mph 46 % 0.0 in
04:50 1.2 °F -9.2 °F 1011.7 in West 4.8 mph 8.0 mph 46 % 0.0 in
04:55 1.2 °F -9.2 °F 1011.7 in WNW 3.2 mph 4.8 mph 46 % 0.0 in
05:00 1.1 °F -9.0 °F 1011.7 in West 1.6 mph 3.2 mph 47 % 0.0 in
05:05 1.0 °F -9.1 °F 1011.7 in WSW 3.2 mph 3.2 mph 47 % 0.0 in
05:10 1.0 °F -9.1 °F 1011.7 in West 1.6 mph 3.2 mph 47 % 0.0 in
05:15 0.7 °F -9.3 °F 1011.7 in WNW 1.6 mph 3.2 mph 47 % 0.0 in
05:20 0.6 °F -9.4 °F 1011.7 in West 1.6 mph 3.2 mph 47 % 0.0 in
05:25 0.5 °F -9.6 °F 1011.7 in NW 3.2 mph 3.2 mph 47 % 0.0 in
05:30 0.5 °F -9.6 °F 1012.8 in WNW 1.6 mph 3.2 mph 47 % 0.0 in
05:35 0.5 °F -9.6 °F 1012.8 in Calm   1.6 mph 47 % 0.0 in
05:40 0.4 °F -9.3 °F 1012.8 in NNW 1.6 mph 3.2 mph 48 % 0.0 in
05:45 0.4 °F -9.3 °F 1012.8 in NE 3.2 mph 3.2 mph 48 % 0.0 in
05:55 0.1 °F -9.9 °F 1012.8 in NW 1.6 mph 3.2 mph 47 % 0.0 in
06:00 0.1 °F -9.9 °F 1013.8 in NNW 1.6 mph 3.2 mph 47 % 0.0 in
06:10 0.0 °F -9.7 °F 1013.8 in NW 1.6 mph 4.8 mph 48 % 0.0 in
06:15 -0.1 °F -9.8 °F 1013.8 in NNE 1.6 mph 4.8 mph 48 % 0.0 in
06:20 -0.2 °F -9.9 °F 1013.8 in NNE 3.2 mph 6.4 mph 48 % 0.0 in
06:25 -0.3 °F -10.0 °F 1013.8 in Calm   6.4 mph 48 % 0.0 in
06:30 -0.4 °F -10.1 °F 1013.8 in NE 1.6 mph 4.8 mph 48 % 0.0 in
06:35 -0.5 °F -9.9 °F 1013.8 in NNE 3.2 mph 3.2 mph 49 % 0.0 in
06:40 -0.5 °F -9.9 °F 1013.8 in NE 3.2 mph 3.2 mph 49 % 0.0 in
06:50 -0.4 °F -9.6 °F 1013.8 in NNE 1.6 mph 8.0 mph 50 % 0.0 in
06:55 -0.3 °F -9.5 °F 1013.8 in WNW 1.6 mph 4.8 mph 50 % 0.0 in
07:00 -0.3 °F -9.5 °F 1012.8 in WSW 1.6 mph 4.8 mph 50 % 0.0 in
07:05 -0.1 °F -9.3 °F 1012.8 in West 3.2 mph   50 % 0.0 in
07:10 -0.1 °F -9.3 °F 1012.8 in West 3.2 mph 3.2 mph 50 % 0.0 in
07:19 -0.1 °F -9.3 °F 1013.8 in ENE 3.9 mph 3.9 mph 50 % 0.0 in
07:20 -0.1 °F -9.3 °F 1013.8 in ENE 4.2 mph 4.2 mph 50 % 0.0 in
07:25 -0.2 °F -9.1 °F 1013.8 in NE 3.7 mph 3.9 mph 51 % 0.0 in
07:30 -0.4 °F -9.3 °F 1013.8 in East 2.6 mph 2.6 mph 51 % 0.0 in
07:35 -0.4 °F -9.3 °F 1013.8 in Calm     51 % 0.0 in
07:40 -0.4 °F -9.3 °F 1013.8 in WNW 1.9 mph   51 % 0.0 in
07:50 -0.1 °F -9.1 °F 1013.8 in West 3.7 mph 3.7 mph 51 % 0.0 in
08:00 0.0 °F -8.9 °F 1013.8 in ENE 2.6 mph 2.6 mph 51 % 0.0 in
08:15 0.1 °F -8.8 °F 1012.8 in NNW 1.9 mph 1.9 mph 51 % 0.0 in
08:20 0.1 °F -8.8 °F 1012.8 in West 3.7 mph   51 % 0.0 in
08:25 0.3 °F -8.7 °F 1012.8 in WSW 3.9 mph 3.9 mph 51 % 0.0 in
08:35 0.4 °F -8.6 °F 1012.8 in WSW 5.6 mph 5.6 mph 51 % 0.0 in
08:40 0.5 °F -8.5 °F 1012.8 in WSW 5.6 mph 5.6 mph 51 % 0.0 in
08:45 0.7 °F -8.3 °F 1012.8 in West 7.4 mph 7.4 mph 51 % 0.0 in
08:50 1.0 °F -8.0 °F 1012.8 in SSW 2.6 mph 2.6 mph 51 % 0.0 in
09:00 1.5 °F -7.6 °F 1013.8 in WSW 3.7 mph 3.7 mph 51 % 0.0 in
09:05 1.5 °F -7.6 °F 1013.8 in WNW 7.6 mph 7.6 mph 51 % 0.0 in
09:10 1.7 °F -7.4 °F 1013.8 in SW 9.3 mph 9.3 mph 51 % 0.0 in
09:15 1.9 °F -7.2 °F 1013.8 in SSW 6.4 mph 6.4 mph 51 % 0.0 in
09:25 2.5 °F -6.9 °F 1013.8 in WSW 13.0 mph 13.0 mph 50 % 0.0 in
09:30 2.7 °F -6.7 °F 1013.8 in WSW 11.1 mph 11.1 mph 50 % 0.0 in
09:40 3.1 °F -6.3 °F 1013.8 in WNW 8.7 mph 8.7 mph 50 % 0.0 in
09:45 3.4 °F -6.3 °F 1013.8 in WSW 5.6 mph 5.6 mph 49 % 0.0 in
09:50 3.5 °F -6.5 °F 1013.8 in WSW 5.8 mph 5.8 mph 48 % 0.0 in
09:55 3.7 °F -6.3 °F 1013.8 in WSW 18.5 mph 18.5 mph 48 % 0.0 in
10:00 3.9 °F -6.4 °F 1013.8 in WSW 13.0 mph 13.0 mph 47 % 0.0 in
10:20 4.5 °F -6.1 °F 1013.8 in WSW 9.3 mph 9.3 mph 46 % 0.0 in
10:25 4.8 °F -6.2 °F 1013.8 in SW 5.6 mph 5.6 mph 45 % 0.0 in
10:30 4.9 °F -6.1 °F 1012.8 in WSW 11.4 mph 11.4 mph 45 % 0.0 in
10:35 5.1 °F -6.2 °F 1012.8 in West 16.4 mph 16.4 mph 44 % 0.0 in
10:40 5.1 °F -6.5 °F 1012.8 in WSW 15.8 mph 15.8 mph 43 % 0.0 in
10:50 5.6 °F -6.3 °F 1013.8 in West 9.3 mph 9.3 mph 42 % 0.0 in
10:55 5.7 °F -6.6 °F 1013.8 in West 13.0 mph 13.0 mph 41 % 0.0 in
11:00 5.9 °F -6.4 °F 1012.8 in West 14.8 mph 14.8 mph 41 % 0.0 in
11:05 6.1 °F -6.5 °F 1012.8 in SW 13.0 mph 13.0 mph 40 % 0.0 in
11:10 6.4 °F -6.2 °F 1012.8 in WSW 9.5 mph 9.5 mph 40 % 0.0 in
11:15 6.3 °F -7.0 °F 1013.8 in West 16.7 mph 16.7 mph 38 % 0.0 in
11:20 6.4 °F -6.9 °F 1013.8 in West 16.7 mph 16.7 mph 38 % 0.0 in
11:25 6.8 °F -6.6 °F 1013.8 in South 9.0 mph 9.0 mph 38 % 0.0 in
11:30 6.6 °F -6.7 °F 1012.8 in West 13.0 mph 13.0 mph 38 % 0.0 in
11:40 6.3 °F -7.7 °F 1012.8 in West 15.8 mph 15.8 mph 36 % 0.0 in
11:45 6.4 °F -7.6 °F 1012.8 in SW 11.1 mph 11.1 mph 36 % 0.0 in
11:50 6.5 °F -7.5 °F 1012.8 in WSW 9.3 mph 9.3 mph 36 % 0.0 in
11:55 6.6 °F -7.8 °F 1012.8 in SW 11.1 mph 11.1 mph 35 % 0.0 in
12:00 6.8 °F -7.6 °F 1012.8 in WNW 13.0 mph 13.0 mph 35 % 0.0 in
12:05 6.9 °F -7.6 °F 1012.8 in WSW 14.8 mph 14.8 mph 35 % 0.0 in
12:08 6.9 °F -7.6 °F 1012.8 in WSW 16.7 mph 16.7 mph 35 % 0.0 in
12:13 7.1 °F -7.7 °F 1012.8 in NNW 16.9 mph 16.9 mph 34 % 0.0 in
12:18 7.2 °F -8.1 °F 1011.7 in SW 11.1 mph 11.1 mph 33 % 0.0 in
12:23 7.3 °F -7.9 °F 1011.7 in WNW 9.3 mph 9.3 mph 33 % 0.0 in
12:28 7.2 °F -8.1 °F 1011.7 in West 12.2 mph 12.2 mph 33 % 0.0 in
12:33 7.2 °F -8.4 °F 1011.7 in West 14.8 mph 14.8 mph 32 % 0.0 in
12:43 7.7 °F -8.0 °F 1011.7 in West 9.3 mph 9.3 mph 32 % 0.0 in
12:58 8.2 °F -7.9 °F 1011.7 in WSW 13.0 mph 13.0 mph 31 % 0.0 in
13:08 8.4 °F -7.8 °F 1011.7 in NNW 9.3 mph 9.3 mph 31 % 0.0 in
13:13 8.7 °F -7.5 °F 1011.7 in WSW 20.4 mph 20.4 mph 31 % 0.0 in
13:18 8.6 °F -8.1 °F 1010.7 in SW 18.5 mph 18.5 mph 30 % 0.0 in
13:33 9.0 °F -7.7 °F 1010.0 in SW 13.0 mph 13.0 mph 30 % 0.0 in
13:38 9.4 °F -7.3 °F 1010.0 in West 18.5 mph 18.5 mph 30 % 0.0 in
13:43 9.4 °F -7.8 °F 1010.0 in NW 7.4 mph 7.4 mph 29 % 0.0 in
13:48 9.6 °F -7.2 °F 1010.0 in West 11.9 mph 11.9 mph 30 % 0.0 in
13:53 9.5 °F -7.2 °F 1010.0 in West 9.3 mph 9.3 mph 30 % 0.0 in
13:58 9.2 °F -8.4 °F 1010.0 in WNW 13.0 mph 13.0 mph 28 % 0.0 in
14:03 9.1 °F -8.9 °F 1010.0 in SE 13.0 mph 13.0 mph 27 % 0.0 in
14:13 9.0 °F -9.5 °F 1010.0 in WSW 16.7 mph 16.7 mph 26 % 0.0 in
14:18 9.0 °F -9.5 °F 1010.7 in SW 11.1 mph 11.1 mph 26 % 0.0 in
14:23 8.9 °F -10.1 °F 1010.7 in WSW 9.7 mph 9.7 mph 25 % 0.0 in
14:29 8.9 °F -10.1 °F 1010.0 in WSW 15.6 mph 15.6 mph 25 % 0.0 in
14:34 8.8 °F -11.2 °F 1010.0 in West 9.3 mph 9.3 mph 23 % 0.0 in
14:39 8.9 °F -10.6 °F 1010.0 in WNW 9.3 mph 9.3 mph 24 % 0.0 in
14:44 8.9 °F -10.6 °F 1010.0 in West 9.3 mph 9.3 mph 24 % 0.0 in
14:54 8.8 °F -10.7 °F 1010.0 in WNW 7.4 mph 7.4 mph 24 % 0.0 in
14:59 8.7 °F -11.3 °F 1009.0 in West 11.1 mph 11.1 mph 23 % 0.0 in
15:04 8.7 °F -11.3 °F 1009.0 in WSW 13.0 mph 13.0 mph 23 % 0.0 in
15:09 8.6 °F -12.6 °F 1009.0 in WSW 18.5 mph 18.5 mph 21 % 0.0 in
15:14 8.5 °F -12.6 °F 1010.0 in WNW 11.1 mph 11.1 mph 21 % 0.0 in
15:19 8.5 °F -12.6 °F 1010.0 in West 9.3 mph 9.3 mph 21 % 0.0 in
15:24 8.4 °F -12.7 °F 1010.0 in WSW 19.0 mph 19.0 mph 21 % 0.0 in
15:29 8.4 °F -13.3 °F 1010.0 in WNW 9.3 mph 9.3 mph 20 % 0.0 in
15:39 8.4 °F -12.7 °F 1010.0 in WSW 13.0 mph 13.0 mph 21 % 0.0 in
15:44 8.4 °F -12.7 °F 1010.0 in West 9.5 mph 9.5 mph 21 % 0.0 in
15:49 8.4 °F -13.3 °F 1010.0 in West 14.8 mph 14.8 mph 20 % 0.0 in
15:54 8.3 °F -13.4 °F 1010.0 in West 11.1 mph 11.1 mph 20 % 0.0 in
15:59 8.3 °F -13.4 °F 1009.0 in NNW 13.0 mph 13.0 mph 20 % 0.0 in
16:04 8.2 °F -13.5 °F 1009.0 in SSW 9.3 mph 9.3 mph 20 % 0.0 in
16:09 8.2 °F -13.5 °F 1009.0 in ESE 9.3 mph 9.3 mph 20 % 0.0 in
16:14 8.1 °F -13.6 °F 1010.0 in SW 6.9 mph 6.9 mph 20 % 0.0 in
16:24 8.1 °F -13.6 °F 1010.0 in North 9.3 mph 9.3 mph 20 % 0.0 in
16:29 8.0 °F -13.7 °F 1010.7 in SSW 9.3 mph 9.3 mph 20 % 0.0 in
16:34 8.0 °F -13.7 °F 1010.7 in WSW 9.3 mph 9.3 mph 20 % 0.0 in
16:39 7.9 °F -13.7 °F 1010.7 in West 11.1 mph 11.1 mph 20 % 0.0 in
16:44 7.9 °F -13.7 °F 1010.7 in SSW 4.7 mph 4.7 mph 20 % 0.0 in
16:54 7.8 °F -13.8 °F 1010.7 in WSW 7.4 mph 7.4 mph 20 % 0.0 in
16:59 7.8 °F -13.8 °F 1010.7 in West 3.7 mph 3.7 mph 20 % 0.0 in
17:04 7.8 °F -13.8 °F 1010.7 in WNW 3.7 mph 3.7 mph 20 % 0.0 in
17:14 7.8 °F -13.8 °F 1011.7 in NNE 7.4 mph 7.4 mph 20 % 0.0 in
17:19 7.7 °F -13.9 °F 1011.7 in WNW 5.6 mph 5.6 mph 20 % 0.0 in
17:24 7.6 °F -14.0 °F 1011.7 in West 3.7 mph 3.7 mph 20 % 0.0 in
17:29 7.5 °F -14.1 °F 1011.7 in NNW 4.2 mph 4.2 mph 20 % 0.0 in
17:34 7.5 °F -14.1 °F 1011.7 in NW 7.4 mph 7.4 mph 20 % 0.0 in
17:44 7.3 °F -14.8 °F 1011.7 in NE 4.2 mph 4.2 mph 19 % 0.0 in
17:54 7.1 °F -14.4 °F 1011.7 in NNE 5.6 mph 5.6 mph 20 % 0.0 in
18:00 7.1 °F -14.4 °F 1012.8 in NNE 3.7 mph 3.7 mph 20 % 0.0 in
18:07 7.0 °F -14.5 °F 1012.8 in NNE 3.7 mph 3.7 mph 20 % 0.0 in
18:12 7.0 °F -14.5 °F 1012.8 in NE 5.6 mph 5.6 mph 20 % 0.0 in
18:17 6.9 °F -14.6 °F 1012.8 in NE 5.8 mph 5.8 mph 20 % 0.0 in
18:22 7.0 °F -14.5 °F 1012.8 in ENE 3.7 mph 3.7 mph 20 % 0.0 in
18:27 6.9 °F -14.6 °F 1012.8 in NE 6.9 mph 6.9 mph 20 % 0.0 in
18:37 6.8 °F -14.7 °F 1012.8 in NNE 3.7 mph 3.7 mph 20 % 0.0 in
18:42 6.6 °F -14.2 °F 1012.8 in NNE 4.7 mph 4.7 mph 21 % 0.0 in
18:48 6.7 °F -13.6 °F 1013.8 in ENE 7.4 mph 7.4 mph 22 % 0.0 in
18:53 6.7 °F -13.6 °F 1013.8 in NNE 7.4 mph 7.4 mph 22 % 0.0 in
19:03 6.6 °F -13.1 °F 1013.8 in NNE 3.7 mph 3.7 mph 23 % 0.0 in
19:08 6.5 °F -12.7 °F 1013.8 in ENE 1.9 mph   24 % 0.0 in
19:18 6.5 °F -12.2 °F 1013.8 in NNE 1.9 mph 1.9 mph 25 % 0.0 in
19:23 6.5 °F -12.2 °F 1013.8 in Calm     25 % 0.0 in
19:28 6.4 °F -12.2 °F 1013.8 in Calm     25 % 0.0 in
19:33 6.4 °F -12.2 °F 1013.8 in Calm     25 % 0.0 in
19:38 6.4 °F -11.8 °F 1013.8 in Calm     26 % 0.0 in
19:43 6.4 °F -11.8 °F 1013.8 in NNE 1.9 mph   26 % 0.0 in
19:48 6.3 °F -11.8 °F 1014.8 in NNE 3.9 mph 3.9 mph 26 % 0.0 in
19:58 6.2 °F -11.4 °F 1014.8 in South 4.2 mph 4.2 mph 27 % 0.0 in
20:08 6.3 °F -11.4 °F 1014.8 in South 5.6 mph 5.6 mph 27 % 0.0 in
20:13 6.3 °F -11.4 °F 1014.8 in West 2.6 mph 2.6 mph 27 % 0.0 in
20:28 6.3 °F -10.9 °F 1014.8 in Calm     28 % 0.0 in
20:33 6.3 °F -10.9 °F 1014.8 in NNE 1.9 mph 1.9 mph 28 % 0.0 in
20:43 6.2 °F -10.6 °F 1014.8 in SW 3.7 mph 3.7 mph 29 % 0.0 in
20:48 6.1 °F -10.7 °F 1015.8 in SW 1.9 mph   29 % 0.0 in
20:53 6.1 °F -10.7 °F 1015.8 in Calm     29 % 0.0 in
20:58 6.1 °F -10.7 °F 1015.8 in NW 1.9 mph   29 % 0.0 in
21:03 6.2 °F -10.6 °F 1015.8 in Calm     29 % 0.0 in
21:08 6.1 °F -10.7 °F 1015.8 in NW 1.9 mph 1.9 mph 29 % 0.0 in
21:18 6.0 °F -10.3 °F 1015.8 in Calm     30 % 0.0 in
21:23 6.0 °F -10.3 °F 1015.8 in Calm     30 % 0.0 in
21:28 5.9 °F -10.4 °F 1015.8 in Calm     30 % 0.0 in
21:38 5.8 °F -11.3 °F 1014.8 in Calm     28 % 0.0 in
21:43 5.9 °F -11.3 °F 1014.8 in SW 3.7 mph 3.7 mph 28 % 0.0 in
21:53 5.7 °F -11.0 °F 1015.8 in WSW 3.7 mph 3.7 mph 29 % 0.0 in
21:58 5.6 °F -11.1 °F 1015.8 in WSW 3.7 mph 3.7 mph 29 % 0.0 in
22:03 5.6 °F -11.5 °F 1015.8 in West 7.4 mph 7.4 mph 28 % 0.0 in
22:13 5.9 °F -11.7 °F 1015.8 in WSW 5.6 mph 5.6 mph 27 % 0.0 in
22:23 5.8 °F -12.3 °F 1015.8 in West 3.7 mph 4.2 mph 26 % 0.0 in
22:28 5.8 °F -12.3 °F 1015.8 in WSW 3.9 mph 3.9 mph 26 % 0.0 in
22:29 5.8 °F -12.3 °F 1014.8 in WNW 5.6 mph 5.6 mph 26 % 0.0 in
22:34 5.8 °F -12.3 °F 1014.8 in WSW 7.4 mph 7.4 mph 26 % 0.0 in
22:44 5.8 °F -12.3 °F 1015.8 in WSW 9.3 mph 9.3 mph 26 % 0.0 in
22:49 5.9 °F -12.7 °F 1015.8 in WSW 7.4 mph 7.4 mph 25 % 0.0 in
22:59 5.8 °F -12.3 °F 1015.8 in WNW 13.0 mph 13.0 mph 26 % 0.0 in
23:04 5.8 °F -12.3 °F 1015.8 in West 5.6 mph 5.6 mph 26 % 0.0 in
23:09 5.7 °F -12.3 °F 1015.8 in WSW 7.4 mph 7.4 mph 26 % 0.0 in
23:14 5.7 °F -12.8 °F 1015.8 in WSW 4.7 mph 4.7 mph 25 % 0.0 in
23:19 5.7 °F -12.3 °F 1015.8 in SW 5.6 mph 5.6 mph 26 % 0.0 in
23:24 5.7 °F -12.3 °F 1015.8 in WSW 7.4 mph 7.4 mph 26 % 0.0 in
23:35 5.8 °F -12.8 °F 1015.8 in West 3.2 mph 11.3 mph 25 % 0.0 in
23:40 5.9 °F -12.7 °F 1015.8 in WSW 14.8 mph 14.8 mph 25 % 0.0 in
23:50 5.8 °F -12.8 °F 1015.8 in WSW 4.8 mph 12.9 mph 25 % 0.0 in
Meteo Sesrovires
Elogis d' Weather Underground - 1.5 mb

Guio original per  Jim McMurry - jmcmurry@mwt.net Adaptat per a la plantilla per  Wim van der Kuil - Leuven-Template.eu

Trobareu la nostra informacio del temps tambe a:

Weather Underground

AWEKAS